< Typhoon 200811 2008 Season Typhoon 200813 >
Typhoon 200812 (NURI)
General InformationTrack Information on Google MapsDetailed Wind InformationAccess Analytics MapList of All Images || NewsDisaster Info.WeblogTrackbackTyphoon FrontTyphoon ImaginationResourceGoogle EarthGE AnimationAtom FeedGeoJSON
Detalied Best Track (Time Zone = UTC)
Year Month Day Hour Lat. Long. Pressure (hPa) Wind (kt) Class Image Chart
2008 8 17 06 15.5 138.6 1006 0 2 Image Chart
2008 8 17 12 15.6 136.7 1004 0 2 Image Chart
2008 8 17 18 15.7 135.1 1000 35 3 Image Chart
2008 8 18 00 15.8 133.4 996 35 3 Image Chart
2008 8 18 06 16.0 131.7 990 45 3 Image Chart
2008 8 18 12 16.2 130.2 980 55 4 Image Chart
2008 8 18 18 16.7 128.6 970 65 5 Image Chart
2008 8 19 00 17.1 127.0 960 70 5 Image Chart
2008 8 19 06 17.6 125.5 955 75 5 Image Chart
2008 8 19 12 18.0 124.3 955 75 5 Image Chart
2008 8 19 18 18.4 123.2 955 75 5 Image Chart
2008 8 20 00 18.7 122.0 955 75 5 Image Chart
2008 8 20 06 18.9 121.1 955 75 5 Image Chart
2008 8 20 12 19.6 120.5 955 75 5 Image Chart
2008 8 20 18 19.9 119.0 955 75 5 Image Chart
2008 8 21 00 20.1 118.0 960 70 5 Image Chart
2008 8 21 06 20.3 117.1 960 70 5 Image Chart
2008 8 21 12 20.5 116.5 965 65 5 Image Chart
2008 8 21 18 20.8 115.8 970 60 4 Image Chart
2008 8 22 00 21.5 115.1 975 55 4 Image Chart
2008 8 22 06 22.1 114.4 980 50 4 Image Chart
2008 8 22 12 22.5 114.2 990 45 3 Image Chart
2008 8 22 18 22.7 113.2 996 40 3 Image Chart
2008 8 23 00 23.1 112.4 1000 0 2 Image Chart
Japan Meteorological Agency Best Track Data | Correction Date : 2008-10-01
< Typhoon 200811 2008 Season Typhoon 200813 >

Help